createdAt,value
2022-08-17T00:01:27.177Z,19.27
2022-08-17T00:03:55.275Z,19.21
2022-08-17T00:06:30.857Z,19.14
2022-08-17T00:09:02.253Z,19.10
2022-08-17T00:11:37.748Z,19.01
2022-08-17T00:14:16.262Z,18.96
2022-08-17T00:16:55.383Z,18.91
2022-08-17T00:19:23.114Z,18.84
2022-08-17T00:22:32.649Z,18.78
2022-08-17T00:24:25.004Z,18.73
2022-08-17T00:26:52.880Z,18.73
2022-08-17T00:29:20.626Z,18.72
2022-08-17T00:31:49.545Z,18.74
2022-08-17T00:34:17.693Z,18.74
2022-08-17T00:36:45.552Z,18.77
2022-08-17T00:39:13.240Z,18.79
2022-08-17T00:41:42.563Z,18.81
2022-08-17T00:44:11.706Z,18.84
2022-08-17T00:46:42.322Z,18.83
2022-08-17T00:49:12.880Z,18.81
2022-08-17T00:51:56.946Z,18.80
2022-08-17T00:54:29.152Z,18.76
2022-08-17T00:57:08.331Z,18.75
2022-08-17T00:59:44.373Z,18.70
2022-08-17T01:02:15.955Z,18.66
2022-08-17T01:04:46.427Z,18.62
2022-08-17T01:07:15.425Z,18.55
2022-08-17T01:09:44.060Z,18.53
2022-08-17T01:12:12.314Z,18.49
2022-08-17T01:14:41.105Z,18.45
2022-08-17T01:17:09.679Z,18.42
2022-08-17T01:19:41.370Z,18.40
2022-08-17T01:22:16.095Z,18.41
2022-08-17T01:24:49.203Z,18.41
2022-08-17T01:27:18.512Z,18.43
2022-08-17T01:29:52.549Z,18.46
2022-08-17T01:32:20.181Z,18.49
2022-08-17T01:34:50.416Z,18.49
2022-08-17T01:37:20.973Z,18.51
2022-08-17T01:39:53.116Z,18.50
2022-08-17T01:42:32.397Z,18.48
2022-08-17T01:45:11.080Z,18.47
2022-08-17T01:47:38.760Z,18.48
2022-08-17T01:50:15.458Z,18.45
2022-08-17T01:52:45.670Z,18.44
2022-08-17T01:55:17.056Z,18.41
2022-08-17T01:57:45.110Z,18.38
2022-08-17T02:00:14.193Z,18.35
2022-08-17T02:02:44.017Z,18.31
2022-08-17T02:05:12.129Z,18.29
2022-08-17T02:07:59.892Z,18.29
2022-08-17T02:10:20.295Z,18.29
2022-08-17T02:12:50.188Z,18.30
2022-08-17T02:15:25.578Z,18.36
2022-08-17T02:17:57.451Z,18.41
2022-08-17T02:20:41.934Z,18.46
2022-08-17T02:22:58.413Z,18.51
2022-08-17T02:25:34.317Z,18.59
2022-08-17T02:28:08.672Z,18.66
2022-08-17T02:31:01.410Z,18.71
2022-08-17T02:33:17.226Z,18.77
2022-08-17T02:35:52.947Z,18.81
2022-08-17T02:38:20.695Z,18.83
2022-08-17T02:40:48.688Z,18.79
2022-08-17T02:43:17.779Z,18.79
2022-08-17T02:45:45.423Z,18.78
2022-08-17T02:48:13.219Z,18.76
2022-08-17T02:50:40.847Z,18.74
2022-08-17T02:53:08.468Z,18.71
2022-08-17T02:55:39.836Z,18.67
2022-08-17T02:58:10.114Z,18.66
2022-08-17T03:00:42.312Z,18.66
2022-08-17T03:03:13.086Z,18.65
2022-08-17T03:05:41.358Z,18.67
2022-08-17T03:08:12.971Z,18.68
2022-08-17T03:10:39.207Z,18.71
2022-08-17T03:13:06.847Z,18.75
2022-08-17T03:15:35.344Z,18.79
2022-08-17T03:18:03.405Z,18.86
2022-08-17T03:20:32.542Z,18.86
2022-08-17T03:23:02.005Z,18.87
2022-08-17T03:25:35.059Z,18.84
2022-08-17T03:28:04.864Z,18.80
2022-08-17T03:30:33.306Z,18.76
2022-08-17T03:33:05.903Z,18.70
2022-08-17T03:35:35.999Z,18.68
2022-08-17T03:38:04.512Z,18.65
2022-08-17T03:40:55.500Z,18.65
2022-08-17T03:43:09.142Z,18.64
2022-08-17T03:45:56.143Z,18.61
2022-08-17T03:48:42.487Z,18.57
2022-08-17T03:51:34.187Z,18.58
2022-08-17T03:54:20.521Z,18.59
2022-08-17T03:57:05.212Z,18.57
2022-08-17T03:59:34.356Z,18.60
2022-08-17T04:02:11.024Z,18.64
2022-08-17T04:04:39.344Z,18.69
2022-08-17T04:07:07.934Z,18.75
2022-08-17T04:09:36.068Z,18.81
2022-08-17T04:12:05.222Z,18.86
2022-08-17T04:14:36.017Z,18.90
2022-08-17T04:17:05.865Z,18.92
2022-08-17T04:19:33.841Z,18.96
2022-08-17T04:22:01.568Z,18.96
2022-08-17T04:24:29.362Z,19.00
2022-08-17T04:26:56.983Z,18.99
2022-08-17T04:29:25.703Z,18.99
2022-08-17T04:31:55.293Z,19.00
2022-08-17T04:34:24.371Z,18.98
2022-08-17T04:36:52.479Z,18.97
2022-08-17T04:39:20.037Z,18.96
2022-08-17T04:42:06.003Z,18.97
2022-08-17T04:44:37.397Z,18.97
2022-08-17T04:47:06.785Z,18.99
2022-08-17T04:49:37.100Z,19.03
2022-08-17T04:52:05.168Z,19.07
2022-08-17T04:54:32.950Z,19.13
2022-08-17T04:57:00.692Z,19.20
2022-08-17T04:59:28.296Z,19.29
2022-08-17T05:01:55.965Z,19.37
2022-08-17T05:04:34.229Z,19.43
2022-08-17T05:06:55.269Z,19.52
2022-08-17T05:09:22.959Z,19.59
2022-08-17T05:11:52.441Z,19.63
2022-08-17T05:14:22.064Z,19.66
2022-08-17T05:16:51.556Z,19.68
2022-08-17T05:19:19.225Z,19.68
2022-08-17T05:21:46.947Z,19.68
2022-08-17T05:24:38.488Z,19.67
2022-08-17T05:26:44.240Z,19.67
2022-08-17T05:29:11.869Z,19.67
2022-08-17T05:31:39.648Z,19.67
2022-08-17T05:34:07.250Z,19.65
2022-08-17T05:36:43.364Z,19.66
2022-08-17T05:39:04.605Z,19.67
2022-08-17T05:41:32.054Z,19.65
2022-08-17T05:43:59.564Z,19.64
2022-08-17T05:46:34.533Z,19.66
2022-08-17T05:49:07.661Z,19.70
2022-08-17T05:52:10.098Z,19.73
2022-08-17T05:54:58.444Z,19.78
2022-08-17T05:57:53.639Z,19.86
2022-08-17T06:00:26.487Z,19.93
2022-08-17T06:03:35.590Z,20.02
2022-08-17T06:06:25.116Z,20.08
2022-08-17T06:09:07.427Z,20.17
2022-08-17T06:11:40.614Z,20.31
2022-08-17T06:14:28.819Z,20.39
2022-08-17T06:17:08.066Z,20.41
2022-08-17T06:19:56.069Z,20.42
2022-08-17T06:22:32.647Z,20.41
2022-08-17T06:25:20.761Z,20.37
2022-08-17T06:28:05.189Z,20.39
2022-08-17T06:30:58.296Z,20.44
2022-08-17T06:33:13.364Z,20.48
2022-08-17T06:35:55.465Z,20.57
2022-08-17T06:38:49.416Z,20.66
2022-08-17T06:41:52.072Z,20.78
2022-08-17T06:44:43.312Z,20.84
2022-08-17T06:47:08.983Z,20.98
2022-08-17T06:49:55.269Z,21.12
2022-08-17T06:52:45.438Z,21.23
2022-08-17T06:55:08.883Z,21.33
2022-08-17T06:57:46.774Z,21.41
2022-08-17T07:00:22.723Z,21.44
2022-08-17T07:03:15.065Z,21.52
2022-08-17T07:05:51.253Z,21.64
2022-08-17T07:08:37.478Z,21.72
2022-08-17T07:11:12.930Z,21.82
2022-08-17T07:13:56.978Z,21.91
2022-08-17T07:16:40.675Z,21.94
2022-08-17T07:19:11.028Z,21.96
2022-08-17T07:21:59.170Z,22.00
2022-08-17T07:24:44.758Z,22.01
2022-08-17T07:27:20.806Z,22.10
2022-08-17T07:30:08.131Z,22.18
2022-08-17T07:32:47.920Z,22.19
2022-08-17T07:35:40.783Z,22.22
2022-08-17T07:38:25.185Z,22.23
2022-08-17T07:41:00.195Z,22.36
2022-08-17T07:43:36.189Z,22.48
2022-08-17T07:46:44.980Z,22.59
2022-08-17T07:49:18.518Z,22.72
2022-08-17T07:51:51.443Z,22.94
2022-08-17T07:54:36.753Z,23.12
2022-08-17T07:57:25.360Z,23.22
2022-08-17T08:00:16.471Z,23.30
2022-08-17T08:02:48.928Z,23.26
2022-08-17T08:05:50.420Z,23.17
2022-08-17T08:08:04.156Z,23.05
2022-08-17T08:10:42.532Z,23.04
2022-08-17T08:13:23.113Z,23.02
2022-08-17T08:15:58.874Z,22.98
2022-08-17T08:18:53.890Z,22.95
2022-08-17T08:21:11.168Z,22.82
2022-08-17T08:23:42.452Z,22.72
2022-08-17T08:26:34.716Z,22.71
2022-08-17T08:29:22.106Z,22.70
2022-08-17T08:32:36.748Z,22.77
2022-08-17T08:35:12.847Z,22.85
2022-08-17T08:37:55.167Z,22.95
2022-08-17T08:40:40.459Z,23.02
2022-08-17T08:44:00.414Z,23.08
2022-08-17T08:46:40.123Z,23.18
2022-08-17T08:49:59.000Z,23.32
2022-08-17T08:52:01.371Z,23.40
2022-08-17T08:54:46.678Z,23.46
2022-08-17T08:57:30.757Z,23.49
2022-08-17T09:00:11.169Z,23.52
2022-08-17T09:03:03.658Z,23.50
2022-08-17T09:05:48.852Z,23.58
2022-08-17T09:08:27.847Z,23.67
2022-08-17T09:11:10.308Z,23.72
2022-08-17T09:14:01.161Z,23.80
2022-08-17T09:16:40.983Z,23.93
2022-08-17T09:19:20.033Z,24.13
2022-08-17T09:21:55.723Z,24.33
2022-08-17T09:24:37.299Z,24.60
2022-08-17T09:27:18.483Z,24.82
2022-08-17T09:29:55.989Z,24.97
2022-08-17T09:32:41.194Z,25.01
2022-08-17T09:35:32.765Z,25.06
2022-08-17T09:38:19.444Z,25.02
2022-08-17T09:41:15.470Z,24.99
2022-08-17T09:44:00.431Z,25.02
2022-08-17T09:46:38.905Z,25.05
2022-08-17T09:49:32.509Z,24.99
2022-08-17T09:52:09.651Z,24.94
2022-08-17T09:54:40.866Z,24.91
2022-08-17T09:57:30.332Z,24.88
2022-08-17T10:00:11.237Z,24.76
2022-08-17T10:03:00.059Z,24.73
2022-08-17T10:06:02.244Z,24.73
2022-08-17T10:09:01.085Z,24.80
2022-08-17T10:12:10.821Z,24.88
2022-08-17T10:14:56.136Z,25.01
2022-08-17T10:17:55.921Z,25.16
2022-08-17T10:20:29.713Z,25.29
2022-08-17T10:23:21.578Z,25.34
2022-08-17T10:26:15.352Z,25.34
2022-08-17T10:28:53.615Z,25.52
2022-08-17T10:31:35.995Z,25.67
2022-08-17T10:34:38.741Z,25.78
2022-08-17T10:37:48.369Z,25.77
2022-08-17T10:40:27.293Z,25.72
2022-08-17T10:43:00.523Z,25.67
2022-08-17T10:46:13.369Z,25.69
2022-08-17T10:48:38.419Z,25.70
2022-08-17T10:51:13.918Z,25.77
2022-08-17T10:53:48.059Z,25.90
2022-08-17T10:56:22.320Z,25.99
2022-08-17T10:58:56.850Z,25.96
2022-08-17T11:01:41.196Z,25.92
2022-08-17T11:04:21.005Z,25.89
2022-08-17T11:07:03.442Z,25.86
2022-08-17T11:09:39.469Z,25.85
2022-08-17T11:13:00.785Z,25.92
2022-08-17T11:15:46.646Z,25.96
2022-08-17T11:18:31.531Z,26.02
2022-08-17T11:21:31.338Z,26.01
2022-08-17T11:24:38.286Z,25.98
2022-08-17T11:27:26.192Z,26.18
2022-08-17T11:30:02.246Z,26.34
2022-08-17T11:32:54.720Z,26.47
2022-08-17T11:35:29.261Z,26.67
2022-08-17T11:38:16.849Z,26.72
2022-08-17T11:41:11.530Z,26.72
2022-08-17T11:44:05.538Z,26.85
2022-08-17T11:47:18.252Z,26.94
2022-08-17T11:50:40.401Z,27.09
2022-08-17T11:53:38.021Z,27.26
2022-08-17T11:56:10.946Z,27.30
2022-08-17T11:58:45.559Z,27.32
2022-08-17T12:01:28.788Z,27.34
2022-08-17T12:04:18.322Z,27.48
2022-08-17T12:06:54.386Z,27.57
2022-08-17T12:09:27.508Z,27.66
2022-08-17T12:12:12.500Z,27.69
2022-08-17T12:15:08.469Z,27.63
2022-08-17T12:17:11.690Z,27.49
2022-08-17T12:19:42.706Z,27.53
2022-08-17T12:22:32.841Z,27.60
2022-08-17T12:25:15.653Z,27.63
2022-08-17T12:28:05.591Z,27.65
2022-08-17T12:30:21.911Z,27.68
2022-08-17T12:32:50.448Z,27.77
2022-08-17T12:35:35.415Z,27.83
2022-08-17T12:38:31.833Z,27.92
2022-08-17T12:40:37.415Z,27.94
2022-08-17T12:43:10.910Z,27.97
2022-08-17T12:45:39.717Z,27.95
2022-08-17T12:48:14.950Z,27.99
2022-08-17T12:50:45.351Z,28.06
2022-08-17T12:53:20.658Z,28.14
2022-08-17T12:55:50.286Z,28.22
2022-08-17T12:58:26.167Z,28.28
2022-08-17T13:01:11.906Z,28.40
2022-08-17T13:03:50.956Z,28.53
2022-08-17T13:06:34.635Z,28.59
2022-08-17T13:09:17.035Z,28.63
2022-08-17T13:11:54.672Z,28.59
2022-08-17T13:14:22.613Z,28.52
2022-08-17T13:16:59.012Z,28.53
2022-08-17T13:19:39.945Z,28.46
2022-08-17T13:22:01.554Z,28.51
2022-08-17T13:24:38.578Z,28.57
2022-08-17T13:27:08.674Z,28.51
2022-08-17T13:29:52.801Z,28.40
2022-08-17T13:32:39.889Z,28.28
2022-08-17T13:35:40.089Z,28.04
2022-08-17T13:38:11.293Z,27.82
2022-08-17T13:40:50.003Z,27.62
2022-08-17T13:43:44.724Z,27.44
2022-08-17T13:46:23.819Z,27.27
2022-08-17T13:49:05.733Z,27.09
2022-08-17T13:51:44.133Z,26.96
2022-08-17T13:54:36.841Z,26.82
2022-08-17T13:57:18.598Z,26.82
2022-08-17T13:59:54.673Z,26.95
2022-08-17T14:02:20.485Z,27.12
2022-08-17T14:04:48.374Z,27.29
2022-08-17T14:07:21.372Z,27.50
2022-08-17T14:09:54.474Z,27.69
2022-08-17T14:12:26.252Z,27.80
2022-08-17T14:14:55.901Z,27.94
2022-08-17T14:17:24.377Z,28.07
2022-08-17T14:19:52.826Z,28.02
2022-08-17T14:22:31.184Z,27.94
2022-08-17T14:25:01.245Z,27.84
2022-08-17T14:27:32.521Z,27.71
2022-08-17T14:30:01.691Z,27.56
2022-08-17T14:32:36.292Z,27.42
2022-08-17T14:35:05.833Z,27.28
2022-08-17T14:37:33.997Z,27.14
2022-08-17T14:40:05.997Z,27.01
2022-08-17T14:42:37.072Z,26.89
2022-08-17T14:45:29.607Z,26.77
2022-08-17T14:47:41.252Z,26.67
2022-08-17T14:50:13.164Z,26.54
2022-08-17T14:52:42.874Z,26.45
2022-08-17T14:55:12.488Z,26.39
2022-08-17T14:57:41.762Z,26.33
2022-08-17T15:00:10.320Z,26.29
2022-08-17T15:02:53.477Z,26.25
2022-08-17T15:05:24.740Z,26.21
2022-08-17T15:07:53.070Z,26.16
2022-08-17T15:10:21.337Z,26.14
2022-08-17T15:12:49.141Z,26.11
2022-08-17T15:15:18.020Z,26.05
2022-08-17T15:17:46.261Z,26.00
2022-08-17T15:20:20.197Z,25.96
2022-08-17T15:22:49.174Z,25.91
2022-08-17T15:25:19.090Z,25.85
2022-08-17T15:27:46.923Z,25.78
2022-08-17T15:30:15.016Z,25.69
2022-08-17T15:32:51.405Z,25.62
2022-08-17T15:35:14.081Z,25.56
2022-08-17T15:37:41.888Z,25.53
2022-08-17T15:40:12.321Z,25.47
2022-08-17T15:42:40.766Z,25.44
2022-08-17T15:45:12.854Z,25.39
2022-08-17T15:47:42.104Z,25.30
2022-08-17T15:50:10.628Z,25.16
2022-08-17T15:52:39.927Z,25.00
2022-08-17T15:55:12.640Z,24.91
2022-08-17T15:57:40.854Z,24.81
2022-08-17T16:00:10.151Z,24.69
2022-08-17T16:03:13.776Z,24.60
2022-08-17T16:05:16.007Z,24.51
2022-08-17T16:07:45.395Z,24.38
2022-08-17T16:10:18.228Z,24.28
2022-08-17T16:12:47.399Z,24.18
2022-08-17T16:15:16.803Z,24.10
2022-08-17T16:17:44.791Z,24.03
2022-08-17T16:20:19.960Z,23.97
2022-08-17T16:22:46.039Z,23.90
2022-08-17T16:25:21.445Z,23.78
2022-08-17T16:27:53.510Z,23.65
2022-08-17T16:30:24.728Z,23.58
2022-08-17T16:32:54.609Z,23.48
2022-08-17T16:35:26.121Z,23.40
2022-08-17T16:37:56.605Z,23.31
2022-08-17T16:40:35.647Z,23.23
2022-08-17T16:43:01.106Z,23.17
2022-08-17T16:45:32.294Z,23.14
2022-08-17T16:48:01.101Z,23.13
2022-08-17T16:50:28.698Z,23.13
2022-08-17T16:53:06.752Z,23.17
2022-08-17T16:55:35.173Z,23.21
2022-08-17T16:58:05.837Z,23.26
2022-08-17T17:00:34.388Z,23.31
2022-08-17T17:03:20.523Z,23.33
2022-08-17T17:06:18.898Z,23.34
2022-08-17T17:08:59.118Z,23.36
2022-08-17T17:11:50.428Z,23.30
2022-08-17T17:14:27.936Z,23.26
2022-08-17T17:17:25.465Z,23.23
2022-08-17T17:20:16.158Z,23.21
2022-08-17T17:23:11.283Z,23.16
2022-08-17T17:25:54.177Z,23.13
2022-08-17T17:28:39.996Z,23.06
2022-08-17T17:31:25.460Z,23.03
2022-08-17T17:34:00.935Z,22.97
2022-08-17T17:36:39.792Z,22.92
2022-08-17T17:39:15.481Z,22.89
2022-08-17T17:41:56.820Z,22.88
2022-08-17T17:44:41.471Z,22.88
2022-08-17T17:47:09.692Z,22.87
2022-08-17T17:49:44.452Z,22.85
2022-08-17T17:52:46.657Z,22.85
2022-08-17T17:55:25.003Z,22.84
2022-08-17T17:58:23.768Z,22.85
2022-08-17T18:01:11.731Z,22.82
2022-08-17T18:03:50.683Z,22.82
2022-08-17T18:06:49.924Z,22.82
2022-08-17T18:09:33.849Z,22.81
2022-08-17T18:12:16.156Z,22.79
2022-08-17T18:15:16.389Z,22.79
2022-08-17T18:18:17.651Z,22.75
2022-08-17T18:20:53.687Z,22.77
2022-08-17T18:23:27.722Z,22.78
2022-08-17T18:25:53.946Z,22.73
2022-08-17T18:28:39.953Z,22.68
2022-08-17T18:31:20.439Z,22.64
2022-08-17T18:33:59.332Z,22.55
2022-08-17T18:36:32.099Z,22.51
2022-08-17T18:39:27.879Z,22.47
2022-08-17T18:41:59.096Z,22.42
2022-08-17T18:44:37.779Z,22.37
2022-08-17T18:47:16.207Z,22.32
2022-08-17T18:49:57.905Z,22.27
2022-08-17T18:52:32.442Z,22.23
2022-08-17T18:55:13.636Z,22.20
2022-08-17T18:57:55.470Z,22.19
2022-08-17T19:00:42.465Z,22.19
2022-08-17T19:03:24.699Z,22.19
2022-08-17T19:05:57.273Z,22.22
2022-08-17T19:08:33.018Z,22.23
2022-08-17T19:11:29.134Z,22.25
2022-08-17T19:14:12.846Z,22.27
2022-08-17T19:16:51.681Z,22.25
2022-08-17T19:19:27.285Z,22.23
2022-08-17T19:22:00.201Z,22.22
2022-08-17T19:24:31.362Z,22.23
2022-08-17T19:27:12.599Z,22.24
2022-08-17T19:30:08.053Z,22.23
2022-08-17T19:32:35.902Z,22.19
2022-08-17T19:35:07.829Z,22.12
2022-08-17T19:38:04.351Z,22.04
2022-08-17T19:40:58.657Z,21.96
2022-08-17T19:43:38.028Z,21.87
2022-08-17T19:46:43.139Z,21.81
2022-08-17T19:49:33.438Z,21.80
2022-08-17T19:52:16.928Z,21.79
2022-08-17T19:54:54.927Z,21.81
2022-08-17T19:57:36.939Z,21.84
2022-08-17T20:00:17.071Z,21.85
2022-08-17T20:03:06.322Z,21.88
2022-08-17T20:06:10.831Z,21.91
2022-08-17T20:08:22.681Z,21.95
2022-08-17T20:11:01.360Z,21.99
2022-08-17T20:13:37.075Z,22.01
2022-08-17T20:16:05.796Z,22.00
2022-08-17T20:18:48.138Z,21.96
2022-08-17T20:21:28.394Z,21.95
2022-08-17T20:24:30.296Z,21.91
2022-08-17T20:27:20.020Z,21.89
2022-08-17T20:30:09.829Z,21.85
2022-08-17T20:32:54.935Z,21.78
2022-08-17T20:35:28.159Z,21.71
2022-08-17T20:38:10.468Z,21.67
2022-08-17T20:40:56.920Z,21.63
2022-08-17T20:43:38.890Z,21.55
2022-08-17T20:46:37.778Z,21.43
2022-08-17T20:49:26.586Z,21.37
2022-08-17T20:52:07.336Z,21.37
2022-08-17T20:54:49.278Z,21.41
2022-08-17T20:57:37.712Z,21.42
2022-08-17T21:00:31.598Z,21.41
2022-08-17T21:03:26.146Z,21.40
2022-08-17T21:06:09.409Z,21.43
2022-08-17T21:08:45.887Z,21.45
2022-08-17T21:12:00.062Z,21.46
2022-08-17T21:14:16.939Z,21.48
2022-08-17T21:17:07.017Z,21.48
2022-08-17T21:20:17.089Z,21.45
2022-08-17T21:23:33.109Z,21.44
2022-08-17T21:26:29.649Z,21.41
2022-08-17T21:29:31.705Z,21.38
2022-08-17T21:32:05.391Z,21.32
2022-08-17T21:34:43.252Z,21.25
2022-08-17T21:37:30.971Z,21.20
2022-08-17T21:40:25.234Z,21.17
2022-08-17T21:43:00.977Z,21.15
2022-08-17T21:45:38.439Z,21.13
2022-08-17T21:48:17.260Z,21.13
2022-08-17T21:51:02.403Z,21.14
2022-08-17T21:53:53.242Z,21.14
2022-08-17T21:56:34.486Z,21.13
2022-08-17T21:59:10.194Z,21.13
2022-08-17T22:01:40.597Z,21.11
2022-08-17T22:04:26.153Z,21.10
2022-08-17T22:06:57.106Z,21.07
2022-08-17T22:09:32.866Z,21.03
2022-08-17T22:12:11.342Z,21.00
2022-08-17T22:14:53.370Z,20.95
2022-08-17T22:17:20.542Z,20.94
2022-08-17T22:19:56.240Z,20.90
2022-08-17T22:22:34.813Z,20.86
2022-08-17T22:25:07.060Z,20.82
2022-08-17T22:27:55.917Z,20.80
2022-08-17T22:30:40.309Z,20.78
2022-08-17T22:33:45.065Z,20.74
2022-08-17T22:36:34.590Z,20.74
2022-08-17T22:39:14.190Z,20.75
2022-08-17T22:41:59.610Z,20.80
2022-08-17T22:44:47.529Z,20.83
2022-08-17T22:47:26.783Z,20.85
2022-08-17T22:50:00.886Z,20.86
2022-08-17T22:53:02.257Z,20.84
2022-08-17T22:55:52.063Z,20.82
2022-08-17T22:58:41.907Z,20.76
2022-08-17T23:01:32.166Z,20.70
2022-08-17T23:04:06.629Z,20.67
2022-08-17T23:06:37.033Z,20.63
2022-08-17T23:09:06.874Z,20.59
2022-08-17T23:11:49.568Z,20.55
2022-08-17T23:14:11.888Z,20.53
2022-08-17T23:16:42.729Z,20.49
2022-08-17T23:19:17.498Z,20.49
2022-08-17T23:21:45.485Z,20.51
2022-08-17T23:24:21.294Z,20.52
2022-08-17T23:26:48.935Z,20.53
2022-08-17T23:29:16.855Z,20.54
2022-08-17T23:31:44.672Z,20.58
2022-08-17T23:34:14.662Z,20.59
2022-08-17T23:36:44.286Z,20.59
2022-08-17T23:39:12.002Z,20.61
2022-08-17T23:41:39.817Z,20.60
2022-08-17T23:44:07.640Z,20.61
2022-08-17T23:46:35.625Z,20.59
2022-08-17T23:49:03.917Z,20.58
2022-08-17T23:51:35.892Z,20.53
2022-08-17T23:54:10.515Z,20.49
2022-08-17T23:56:40.220Z,20.44
2022-08-17T23:59:07.983Z,20.40
